Time;durP1;ratioP1;P1;durP2;ratioP2;P2;SDS_P1;SDS_P2;PMS_P1;PMS_P2;Temp;Humidity;BMP_temperature;BMP_pressure;BME280_temperature;BME280_humidity;BME280_pressure;Samples;Min_cycle;Max_cycle;Signal;HPM_P1;HPM_P2
2023/01/18 00:01:21;;;;;;;;;13.00;10.00;;;;;;;;117957;1179;25058;-65
2023/01/18 00:03:50;;;;;;;;;10.50;8.75;;;;;;;;117922;1191;25597;-66
2023/01/18 00:06:18;;;;;;;;;11.67;9.00;;;;;;;;117967;1191;25180;-65
2023/01/18 00:08:46;;;;;;;;;9.67;9.67;;;;;;;;117869;1180;24759;-65
2023/01/18 00:11:17;;;;;;;;;10.25;10.00;;;;;;;;117885;1180;24806;-69
2023/01/18 00:13:47;;;;;;;;;10.50;10.00;;;;;;;;117898;1179;25408;-67
2023/01/18 00:16:18;;;;;;;;;9.00;7.50;;;;;;;;117901;1191;24794;-64
2023/01/18 00:18:51;;;;;;;;;12.00;10.00;;;;;;;;117950;1177;24710;-65
2023/01/18 00:21:20;;;;;;;;;10.00;9.00;;;;;;;;117953;1177;25175;-66
2023/01/18 00:23:49;;;;;;;;;11.67;8.67;;;;;;;;117971;1191;25143;-66
2023/01/18 00:26:18;;;;;;;;;8.00;8.00;;;;;;;;117949;1182;24940;-63
2023/01/18 00:28:46;;;;;;;;;11.33;11.00;;;;;;;;117978;1180;26403;-65
2023/01/18 00:31:17;;;;;;;;;10.00;8.50;;;;;;;;117926;1179;25291;-65
2023/01/18 00:33:47;;;;;;;;;11.00;9.00;;;;;;;;117975;1180;25462;-65
2023/01/18 00:36:16;;;;;;;;;11.00;9.00;;;;;;;;117936;1187;25848;-65
2023/01/18 00:38:52;;;;;;;;;11.00;9.75;;;;;;;;117951;1191;24801;-65
2023/01/18 00:41:21;;;;;;;;;10.00;6.67;;;;;;;;117929;1188;25472;-65
2023/01/18 00:43:51;;;;;;;;;9.00;6.33;;;;;;;;117975;1180;25073;-66
2023/01/18 00:46:22;;;;;;;;;10.67;9.00;;;;;;;;117946;1191;24939;-66
2023/01/18 00:48:51;;;;;;;;;8.50;7.50;;;;;;;;117949;1180;25274;-66
2023/01/18 00:51:22;;;;;;;;;9.33;9.33;;;;;;;;117952;1180;25365;-66
2023/01/18 00:53:51;;;;;;;;;9.67;8.33;;;;;;;;117937;1191;24994;-66
2023/01/18 00:56:21;;;;;;;;;9.67;6.00;;;;;;;;118061;1181;25459;-64
2023/01/18 00:58:49;;;;;;;;;7.67;7.67;;;;;;;;117945;1191;25620;-65
2023/01/18 01:01:18;;;;;;;;;8.67;8.67;;;;;;;;117981;1177;25786;-66
2023/01/18 01:06:43;;;;;;;;;10.50;7.75;;;;;;;;117907;1179;25292;-67
2023/01/18 01:09:19;;;;;;;;;9.00;9.00;;;;;;;;117892;1181;24722;-67
2023/01/18 01:26:10;;;;;;;;;8.00;8.00;;;;;;;;117942;1180;25118;-64
2023/01/18 01:28:40;;;;;;;;;12.00;7.50;;;;;;;;117940;1179;25067;-67
2023/01/18 01:31:11;;;;;;;;;5.00;5.00;;;;;;;;117964;1184;24989;-69
2023/01/18 01:33:40;;;;;;;;;11.50;9.50;;;;;;;;117930;1191;25276;-66
2023/01/18 01:36:11;;;;;;;;;6.00;6.00;;;;;;;;117953;1180;25556;-66
2023/01/18 01:38:40;;;;;;;;;7.00;6.00;;;;;;;;117971;1180;25259;-66
2023/01/18 01:41:19;;;;;;;;;8.33;5.67;;;;;;;;117929;1179;25547;-67
2023/01/18 01:43:51;;;;;;;;;7.33;7.00;;;;;;;;117797;1179;25797;-67
2023/01/18 01:46:45;;;;;;;;;12.00;8.67;;;;;;;;117923;1180;25460;-68
2023/01/18 01:49:22;;;;;;;;;7.00;6.00;;;;;;;;117924;1179;25520;-68
2023/01/18 01:51:55;;;;;;;;;9.75;7.00;;;;;;;;117953;1177;25655;-68
2023/01/18 01:54:27;;;;;;;;;8.00;6.00;;;;;;;;117864;1180;24982;-66
2023/01/18 01:57:04;;;;;;;;;9.67;7.33;;;;;;;;117935;1178;24871;-68
2023/01/18 01:59:36;;;;;;;;;9.00;7.67;;;;;;;;117873;1181;24737;-68
2023/01/18 02:02:05;;;;;;;;;7.75;7.00;;;;;;;;117953;1180;24839;-67
2023/01/18 02:04:34;;;;;;;;;7.50;6.75;;;;;;;;117846;1181;24882;-68
2023/01/18 02:07:03;;;;;;;;;8.00;6.00;;;;;;;;117898;1180;25336;-67
2023/01/18 02:09:31;;;;;;;;;10.00;8.75;;;;;;;;117880;1180;25293;-68
2023/01/18 02:12:00;;;;;;;;;7.00;7.00;;;;;;;;117939;1181;25664;-68
2023/01/18 02:14:29;;;;;;;;;8.75;7.50;;;;;;;;117957;1192;25719;-65
2023/01/18 02:17:33;;;;;;;;;9.00;7.50;;;;;;;;117964;1180;25314;-65
2023/01/18 02:20:18;;;;;;;;;8.00;8.00;;;;;;;;117956;1187;24851;-67
2023/01/18 02:22:46;;;;;;;;;9.25;7.75;;;;;;;;117973;1180;24772;-67
2023/01/18 02:25:30;;;;;;;;;8.50;6.00;;;;;;;;117950;1179;25537;-65
2023/01/18 02:28:15;;;;;;;;;8.33;6.00;;;;;;;;117913;1180;25574;-66
2023/01/18 02:31:01;;;;;;;;;8.25;7.00;;;;;;;;117904;1179;25202;-65
2023/01/18 02:33:50;;;;;;;;;11.00;8.00;;;;;;;;117941;1180;25534;-67
2023/01/18 02:36:32;;;;;;;;;9.50;7.25;;;;;;;;117922;1181;25289;-67
2023/01/18 02:39:21;;;;;;;;;7.33;7.00;;;;;;;;117956;1180;25746;-68
2023/01/18 02:47:36;;;;;;;;;11.00;7.75;;;;;;;;117848;1180;24818;-66
2023/01/18 02:50:05;;;;;;;;;6.00;6.00;;;;;;;;117918;1191;26489;-66
2023/01/18 02:52:36;;;;;;;;;8.00;6.67;;;;;;;;117934;1179;24757;-64
2023/01/18 02:55:08;;;;;;;;;7.67;6.67;;;;;;;;117945;1190;25050;-66
2023/01/18 02:57:36;;;;;;;;;8.00;5.00;;;;;;;;117882;1184;25392;-67
2023/01/18 03:00:10;;;;;;;;;7.00;7.00;;;;;;;;117858;1179;26401;-67
2023/01/18 03:02:40;;;;;;;;;8.50;8.50;;;;;;;;117863;1180;24834;-67
2023/01/18 03:05:10;;;;;;;;;7.67;7.67;;;;;;;;117854;1186;25241;-67
2023/01/18 03:07:43;;;;;;;;;4.00;3.00;;;;;;;;117867;1186;24950;-67
2023/01/18 03:10:13;;;;;;;;;7.33;5.67;;;;;;;;117903;1192;25243;-67
2023/01/18 03:12:49;;;;;;;;;8.67;6.00;;;;;;;;117904;1191;24721;-66
2023/01/18 03:15:30;;;;;;;;;6.00;6.00;;;;;;;;117910;1180;26327;-68
2023/01/18 03:18:23;;;;;;;;;6.75;6.75;;;;;;;;117897;1191;25261;-68
2023/01/18 03:20:54;;;;;;;;;8.00;6.00;;;;;;;;117854;1191;25035;-67
2023/01/18 03:23:38;;;;;;;;;6.00;6.00;;;;;;;;117478;1185;25429;-67
2023/01/18 03:26:17;;;;;;;;;6.67;6.00;;;;;;;;117871;1188;25639;-67
2023/01/18 03:34:29;;;;;;;;;7.00;4.00;;;;;;;;117901;1192;26102;-69
2023/01/18 03:36:59;;;;;;;;;8.67;6.33;;;;;;;;117930;1180;25310;-70
2023/01/18 03:39:50;;;;;;;;;7.00;5.00;;;;;;;;117824;1191;25573;-69
2023/01/18 03:42:23;;;;;;;;;5.00;5.00;;;;;;;;117885;1191;25582;-67
2023/01/18 03:45:12;;;;;;;;;7.00;7.00;;;;;;;;117933;1180;24881;-67
2023/01/18 03:47:40;;;;;;;;;7.25;6.25;;;;;;;;117937;1179;25466;-67
2023/01/18 03:50:09;;;;;;;;;7.00;6.00;;;;;;;;117866;1191;24862;-67
2023/01/18 03:52:39;;;;;;;;;6.75;6.75;;;;;;;;119092;1182;24791;-66
2023/01/18 03:55:21;;;;;;;;;7.00;5.00;;;;;;;;117980;1191;25767;-67
2023/01/18 03:57:53;;;;;;;;;9.67;8.67;;;;;;;;117930;1190;24896;-66
2023/01/18 04:00:22;;;;;;;;;6.00;6.00;;;;;;;;117964;1179;25288;-66
2023/01/18 04:02:50;;;;;;;;;5.00;5.00;;;;;;;;117960;1181;24863;-67
2023/01/18 04:05:19;;;;;;;;;6.50;4.00;;;;;;;;117964;1180;25503;-65
2023/01/18 04:07:48;;;;;;;;;8.33;6.00;;;;;;;;118007;1180;25207;-66
2023/01/18 04:10:17;;;;;;;;;9.25;6.00;;;;;;;;117994;1179;24877;-66
2023/01/18 04:12:45;;;;;;;;;5.50;5.00;;;;;;;;117967;1180;25621;-66
2023/01/18 04:15:14;;;;;;;;;5.67;5.33;;;;;;;;117949;1180;24803;-67
2023/01/18 04:17:42;;;;;;;;;7.33;7.33;;;;;;;;117951;1191;25124;-67
2023/01/18 04:20:11;;;;;;;;;5.67;5.33;;;;;;;;117958;1179;25073;-67
2023/01/18 04:22:39;;;;;;;;;6.50;5.50;;;;;;;;117998;1181;25329;-67
2023/01/18 04:25:08;;;;;;;;;7.00;7.00;;;;;;;;117926;1192;25417;-68
2023/01/18 04:27:37;;;;;;;;;6.67;6.00;;;;;;;;117952;1179;25410;-67
2023/01/18 04:30:06;;;;;;;;;8.00;5.00;;;;;;;;117969;1192;25612;-67
2023/01/18 04:32:34;;;;;;;;;7.67;5.67;;;;;;;;117953;1179;25599;-67
2023/01/18 04:35:03;;;;;;;;;6.00;5.00;;;;;;;;117966;1179;26136;-67
2023/01/18 04:37:33;;;;;;;;;7.00;7.00;;;;;;;;117946;1179;24999;-67
2023/01/18 04:40:01;;;;;;;;;7.00;6.00;;;;;;;;117885;1191;25430;-67
2023/01/18 04:42:29;;;;;;;;;8.00;5.50;;;;;;;;117926;1191;24841;-67
2023/01/18 04:44:59;;;;;;;;;7.00;6.00;;;;;;;;117944;1191;24773;-67
2023/01/18 04:47:27;;;;;;;;;5.67;5.00;;;;;;;;118006;1191;25178;-67
2023/01/18 04:49:56;;;;;;;;;6.00;5.25;;;;;;;;117940;1179;25528;-67
2023/01/18 04:52:25;;;;;;;;;8.67;6.67;;;;;;;;117946;1183;25226;-67
2023/01/18 04:54:54;;;;;;;;;8.00;8.00;;;;;;;;117997;1191;24895;-67
2023/01/18 04:57:22;;;;;;;;;8.00;4.00;;;;;;;;117954;1179;25017;-66
2023/01/18 04:59:50;;;;;;;;;6.33;6.00;;;;;;;;117894;1192;24758;-66
2023/01/18 05:02:19;;;;;;;;;6.50;6.50;;;;;;;;117897;1179;24748;-67
2023/01/18 05:04:48;;;;;;;;;7.50;5.25;;;;;;;;117931;1181;24975;-67
2023/01/18 05:07:16;;;;;;;;;5.50;4.25;;;;;;;;117963;1180;25279;-68
2023/01/18 05:09:46;;;;;;;;;8.25;7.00;;;;;;;;117989;1181;24850;-67
2023/01/18 05:12:14;;;;;;;;;3.25;3.00;;;;;;;;117955;1191;24936;-67
2023/01/18 05:14:42;;;;;;;;;6.00;5.00;;;;;;;;117933;1192;26124;-66
2023/01/18 05:17:11;;;;;;;;;5.50;5.00;;;;;;;;117937;1179;25196;-67
2023/01/18 05:19:39;;;;;;;;;6.50;5.00;;;;;;;;117919;1181;25468;-67
2023/01/18 05:22:08;;;;;;;;;7.00;6.00;;;;;;;;117960;1183;25177;-67
2023/01/18 05:24:36;;;;;;;;;7.00;6.00;;;;;;;;117845;1180;25522;-67
2023/01/18 05:27:05;;;;;;;;;5.00;5.00;;;;;;;;117919;1191;25344;-67
2023/01/18 05:29:33;;;;;;;;;5.50;5.50;;;;;;;;117937;1180;24807;-67
2023/01/18 05:32:02;;;;;;;;;6.00;6.00;;;;;;;;117864;1182;24847;-66
2023/01/18 05:34:30;;;;;;;;;6.50;6.50;;;;;;;;117938;1191;24711;-68
2023/01/18 05:36:58;;;;;;;;;6.00;5.33;;;;;;;;117843;1191;25655;-68
2023/01/18 05:39:27;;;;;;;;;5.75;5.00;;;;;;;;117898;1191;25396;-66
2023/01/18 05:41:55;;;;;;;;;6.00;4.00;;;;;;;;117807;1179;24893;-66
2023/01/18 05:44:27;;;;;;;;;8.75;6.25;;;;;;;;117830;1191;25576;-66
2023/01/18 05:46:57;;;;;;;;;5.00;5.00;;;;;;;;117977;1180;24830;-67
2023/01/18 05:49:25;;;;;;;;;8.00;6.00;;;;;;;;117829;1179;25066;-67
2023/01/18 05:51:54;;;;;;;;;5.75;5.75;;;;;;;;117874;1180;25298;-68
2023/01/18 05:54:22;;;;;;;;;8.00;6.33;;;;;;;;117879;1180;24775;-68
2023/01/18 05:56:51;;;;;;;;;8.33;6.67;;;;;;;;117860;1181;24785;-68
2023/01/18 05:59:19;;;;;;;;;5.67;4.33;;;;;;;;117881;1191;25608;-67
2023/01/18 06:01:47;;;;;;;;;6.00;6.00;;;;;;;;117953;1181;24738;-67
2023/01/18 06:04:16;;;;;;;;;6.50;6.00;;;;;;;;117942;1181;24870;-67
2023/01/18 06:06:45;;;;;;;;;2.75;2.75;;;;;;;;117932;1181;26448;-67
2023/01/18 06:09:13;;;;;;;;;6.50;4.50;;;;;;;;117940;1180;25280;-67
2023/01/18 06:11:42;;;;;;;;;8.75;6.00;;;;;;;;117853;1178;25374;-68
2023/01/18 06:14:10;;;;;;;;;5.50;5.50;;;;;;;;117738;1180;25288;-68
2023/01/18 06:16:39;;;;;;;;;9.00;7.00;;;;;;;;117933;1180;25146;-69
2023/01/18 06:19:08;;;;;;;;;6.50;6.00;;;;;;;;117898;1181;25413;-69
2023/01/18 06:21:36;;;;;;;;;6.00;5.50;;;;;;;;117809;1181;25019;-69
2023/01/18 06:24:05;;;;;;;;;8.75;8.00;;;;;;;;117785;1179;24749;-68
2023/01/18 06:26:33;;;;;;;;;9.00;5.67;;;;;;;;117826;1180;24966;-67
2023/01/18 06:29:02;;;;;;;;;7.67;7.00;;;;;;;;117825;1179;24861;-68
2023/01/18 06:31:30;;;;;;;;;7.50;6.00;;;;;;;;117829;1191;24821;-68
2023/01/18 06:33:59;;;;;;;;;8.00;7.67;;;;;;;;117834;1180;25112;-66
2023/01/18 06:36:28;;;;;;;;;8.75;6.25;;;;;;;;117834;1179;25481;-67
2023/01/18 06:38:57;;;;;;;;;7.00;6.25;;;;;;;;117911;1191;25277;-66
2023/01/18 06:41:25;;;;;;;;;9.00;7.00;;;;;;;;117962;1180;25352;-67
2023/01/18 06:43:54;;;;;;;;;10.00;8.50;;;;;;;;117963;1180;25171;-69
2023/01/18 06:46:22;;;;;;;;;10.50;7.00;;;;;;;;117961;1180;25358;-67
2023/01/18 06:48:50;;;;;;;;;8.00;6.50;;;;;;;;117780;1181;24840;-69
2023/01/18 06:51:20;;;;;;;;;9.67;6.00;;;;;;;;117895;1180;27362;-68
2023/01/18 06:53:49;;;;;;;;;5.67;5.67;;;;;;;;117950;1180;25654;-70
2023/01/18 06:56:17;;;;;;;;;9.67;7.33;;;;;;;;117859;1191;25539;-76
2023/01/18 06:58:46;;;;;;;;;17.33;10.33;;;;;;;;117810;1181;25291;-74
2023/01/18 07:01:15;;;;;;;;;11.00;9.00;;;;;;;;117831;1180;25225;-69
2023/01/18 07:03:43;;;;;;;;;9.67;8.67;;;;;;;;117844;1179;24833;-75
2023/01/18 07:06:12;;;;;;;;;12.00;8.00;;;;;;;;117858;1179;25395;-72
2023/01/18 07:08:41;;;;;;;;;7.67;6.33;;;;;;;;117886;1180;24853;-67
2023/01/18 07:11:11;;;;;;;;;10.33;8.33;;;;;;;;117968;1183;25013;-66
2023/01/18 07:13:42;;;;;;;;;8.33;7.67;;;;;;;;117878;1179;25398;-68
2023/01/18 07:16:19;;;;;;;;;13.50;9.00;;;;;;;;117706;1179;25169;-70
2023/01/18 07:18:48;;;;;;;;;13.50;9.50;;;;;;;;117883;1181;25561;-69
2023/01/18 07:21:18;;;;;;;;;17.00;11.00;;;;;;;;117994;1192;25230;-69
2023/01/18 07:23:46;;;;;;;;;10.00;7.50;;;;;;;;117906;1192;25202;-69
2023/01/18 07:26:16;;;;;;;;;11.67;9.00;;;;;;;;117878;1191;25630;-70
2023/01/18 07:28:45;;;;;;;;;10.50;7.50;;;;;;;;117504;1188;24936;-69
2023/01/18 07:31:15;;;;;;;;;10.00;7.00;;;;;;;;117902;1180;25598;-72
2023/01/18 07:33:43;;;;;;;;;8.25;8.00;;;;;;;;117795;1182;24821;-72
2023/01/18 07:36:12;;;;;;;;;10.00;9.00;;;;;;;;117935;1178;25167;-67
2023/01/18 07:38:41;;;;;;;;;13.00;8.67;;;;;;;;118015;1180;24967;-68
2023/01/18 07:41:13;;;;;;;;;8.33;7.00;;;;;;;;117960;1191;24711;-66
2023/01/18 07:43:43;;;;;;;;;8.75;7.50;;;;;;;;117812;1180;24844;-67
2023/01/18 07:46:19;;;;;;;;;8.00;5.33;;;;;;;;117840;1192;25764;-68
2023/01/18 07:48:47;;;;;;;;;10.50;6.75;;;;;;;;117957;1179;25499;-67
2023/01/18 07:51:16;;;;;;;;;10.25;6.50;;;;;;;;117926;1181;24986;-68
2023/01/18 07:53:45;;;;;;;;;11.00;6.00;;;;;;;;117931;1180;25373;-67
2023/01/18 07:56:15;;;;;;;;;8.75;6.75;;;;;;;;117897;1180;25657;-66
2023/01/18 07:58:44;;;;;;;;;9.50;6.00;;;;;;;;117922;1183;24742;-67
2023/01/18 08:01:15;;;;;;;;;7.00;7.00;;;;;;;;117942;1177;25362;-71
2023/01/18 08:03:45;;;;;;;;;9.00;8.00;;;;;;;;117885;1179;25093;-66
2023/01/18 08:06:17;;;;;;;;;8.00;7.75;;;;;;;;117933;1177;25532;-66
2023/01/18 08:08:46;;;;;;;;;13.33;6.00;;;;;;;;117956;1177;26482;-68
2023/01/18 08:11:15;;;;;;;;;10.67;7.67;;;;;;;;117941;1179;24983;-69
2023/01/18 08:13:43;;;;;;;;;11.00;8.50;;;;;;;;117958;1191;25925;-67
2023/01/18 08:16:11;;;;;;;;;8.50;5.00;;;;;;;;117930;1177;24963;-68
2023/01/18 08:18:41;;;;;;;;;7.00;7.00;;;;;;;;117855;1180;25609;-67
2023/01/18 08:21:10;;;;;;;;;9.75;7.75;;;;;;;;117942;1180;25412;-67
2023/01/18 08:23:39;;;;;;;;;8.00;6.00;;;;;;;;117951;1191;24926;-66
2023/01/18 08:26:09;;;;;;;;;9.00;8.00;;;;;;;;117504;1180;25498;-66
2023/01/18 08:28:38;;;;;;;;;7.00;7.00;;;;;;;;117950;1192;25131;-67
2023/01/18 08:31:09;;;;;;;;;7.00;5.00;;;;;;;;117832;1183;26306;-66
2023/01/18 08:33:47;;;;;;;;;8.00;5.00;;;;;;;;117825;1187;25412;-67
2023/01/18 08:36:19;;;;;;;;;8.00;7.00;;;;;;;;117855;1180;24968;-65
2023/01/18 08:38:48;;;;;;;;;11.00;9.50;;;;;;;;117884;1179;24820;-65
2023/01/18 08:41:18;;;;;;;;;12.00;8.50;;;;;;;;117703;1192;25277;-71
2023/01/18 08:43:51;;;;;;;;;7.00;6.50;;;;;;;;117836;1180;25402;-73
2023/01/18 08:46:20;;;;;;;;;13.67;6.67;;;;;;;;117884;1179;25672;-67
2023/01/18 08:48:54;;;;;;;;;12.00;9.00;;;;;;;;117878;1180;25582;-65
2023/01/18 08:51:24;;;;;;;;;11.50;8.50;;;;;;;;117956;1191;25231;-65
2023/01/18 08:53:56;;;;;;;;;10.00;9.00;;;;;;;;117932;1179;24867;-65
2023/01/18 08:56:25;;;;;;;;;8.67;6.33;;;;;;;;117982;1179;25700;-65
2023/01/18 08:58:54;;;;;;;;;10.75;9.50;;;;;;;;117966;1177;25558;-65
2023/01/18 09:01:23;;;;;;;;;9.00;6.67;;;;;;;;117956;1180;25620;-65
2023/01/18 09:03:57;;;;;;;;;8.00;6.50;;;;;;;;117975;1186;25085;-65
2023/01/18 09:06:30;;;;;;;;;10.25;7.25;;;;;;;;117952;1177;25612;-65
2023/01/18 09:08:59;;;;;;;;;3.75;3.75;;;;;;;;117925;1177;24704;-65
2023/01/18 09:11:28;;;;;;;;;11.25;7.00;;;;;;;;117964;1191;24788;-65
2023/01/18 09:13:58;;;;;;;;;6.50;5.25;;;;;;;;117927;1182;25557;-65
2023/01/18 09:16:30;;;;;;;;;9.33;7.00;;;;;;;;117882;1177;24957;-66
2023/01/18 09:18:59;;;;;;;;;10.00;7.00;;;;;;;;117865;1179;25038;-65
2023/01/18 09:21:27;;;;;;;;;5.00;5.00;;;;;;;;117955;1177;25333;-65
2023/01/18 09:23:58;;;;;;;;;7.67;6.33;;;;;;;;117956;1177;25038;-65
2023/01/18 09:26:27;;;;;;;;;12.50;7.00;;;;;;;;117931;1180;24875;-65
2023/01/18 09:28:56;;;;;;;;;8.75;8.25;;;;;;;;117951;1177;25596;-65
2023/01/18 09:31:26;;;;;;;;;7.00;6.00;;;;;;;;117960;1177;25303;-65
2023/01/18 09:33:56;;;;;;;;;10.00;8.00;;;;;;;;117929;1177;24910;-65
2023/01/18 09:36:44;;;;;;;;;6.33;5.67;;;;;;;;117938;1182;25555;-65
2023/01/18 09:39:13;;;;;;;;;15.50;8.00;;;;;;;;117932;1185;25077;-65
2023/01/18 09:41:45;;;;;;;;;14.00;9.00;;;;;;;;117937;1183;24826;-64
2023/01/18 09:44:30;;;;;;;;;9.50;8.00;;;;;;;;117939;1191;24964;-63
2023/01/18 09:51:32;;;;;;;;;9.50;8.00;;;;;;;;118512;1182;25276;-64
2023/01/18 09:54:14;;;;;;;;;8.00;7.00;;;;;;;;117816;1191;25565;-67
2023/01/18 09:57:00;;;;;;;;;6.33;5.67;;;;;;;;117809;1181;26058;-66
2023/01/18 09:59:53;;;;;;;;;7.00;4.00;;;;;;;;117864;1183;25492;-67
2023/01/18 10:02:27;;;;;;;;;12.00;7.00;;;;;;;;117882;1180;25039;-66
2023/01/18 10:04:59;;;;;;;;;10.33;9.00;;;;;;;;117864;1181;24902;-67
2023/01/18 10:07:29;;;;;;;;;8.75;8.75;;;;;;;;117887;1191;24768;-66
2023/01/18 10:09:59;;;;;;;;;7.50;7.00;;;;;;;;117818;1180;25509;-66
2023/01/18 10:12:41;;;;;;;;;9.00;6.00;;;;;;;;117841;1192;24940;-66
2023/01/18 10:15:21;;;;;;;;;7.00;7.00;;;;;;;;117937;1183;24689;-65
2023/01/18 10:17:52;;;;;;;;;11.00;8.67;;;;;;;;117792;1180;25331;-65
2023/01/18 10:20:39;;;;;;;;;11.00;5.50;;;;;;;;117909;1180;25581;-65
2023/01/18 10:23:08;;;;;;;;;7.00;5.00;;;;;;;;117895;1179;25359;-64
2023/01/18 10:26:15;;;;;;;;;7.67;5.00;;;;;;;;117911;1180;25487;-66
2023/01/18 10:29:21;;;;;;;;;8.00;7.00;;;;;;;;117651;1192;25117;-67
2023/01/18 10:32:09;;;;;;;;;9.00;6.00;;;;;;;;117931;1179;25031;-64
2023/01/18 10:34:43;;;;;;;;;9.75;7.50;;;;;;;;117868;1179;24831;-64
2023/01/18 10:37:17;;;;;;;;;10.00;7.00;;;;;;;;117878;1192;25738;-65
2023/01/18 10:39:50;;;;;;;;;9.50;8.00;;;;;;;;117846;1184;25391;-62
2023/01/18 10:42:28;;;;;;;;;7.00;5.00;;;;;;;;117727;1180;24794;-63
2023/01/18 10:44:56;;;;;;;;;10.00;7.00;;;;;;;;117893;1192;24821;-66
2023/01/18 10:47:25;;;;;;;;;9.00;7.00;;;;;;;;117938;1180;25718;-67
2023/01/18 10:49:58;;;;;;;;;8.00;7.00;;;;;;;;117916;1179;24755;-68
2023/01/18 10:52:31;;;;;;;;;9.67;8.00;;;;;;;;117909;1183;25480;-68
2023/01/18 10:55:02;;;;;;;;;8.50;7.00;;;;;;;;117961;1179;24966;-69
2023/01/18 10:57:35;;;;;;;;;9.00;8.00;;;;;;;;117877;1192;25412;-70
2023/01/18 11:00:11;;;;;;;;;10.50;9.00;;;;;;;;117890;1189;25160;-68
2023/01/18 11:02:43;;;;;;;;;11.00;8.33;;;;;;;;117858;1180;25219;-68
2023/01/18 11:05:36;;;;;;;;;10.33;9.00;;;;;;;;117473;1180;25164;-69
2023/01/18 11:08:23;;;;;;;;;10.00;9.00;;;;;;;;117840;1192;25379;-72
2023/01/18 11:11:00;;;;;;;;;11.67;8.67;;;;;;;;117887;1188;25369;-71
2023/01/18 11:13:32;;;;;;;;;9.50;9.00;;;;;;;;117902;1180;25268;-70
2023/01/18 11:16:22;;;;;;;;;9.00;7.00;;;;;;;;117846;1180;25210;-70
2023/01/18 11:19:02;;;;;;;;;10.33;7.00;;;;;;;;117936;1192;25223;-70
2023/01/18 11:21:42;;;;;;;;;10.33;8.67;;;;;;;;117891;1192;24844;-74
2023/01/18 11:24:20;;;;;;;;;10.00;7.00;;;;;;;;117944;1186;24998;-75
2023/01/18 11:26:53;;;;;;;;;9.67;7.00;;;;;;;;117891;1192;25161;-76
2023/01/18 11:29:26;;;;;;;;;8.00;8.00;;;;;;;;117892;1179;25289;-74
2023/01/18 11:32:00;;;;;;;;;8.00;8.00;;;;;;;;117497;1187;24927;-75
2023/01/18 11:34:37;;;;;;;;;8.00;7.00;;;;;;;;117941;1179;25379;-72
2023/01/18 11:37:28;;;;;;;;;10.00;8.00;;;;;;;;117918;1184;26067;-76
2023/01/18 11:39:57;;;;;;;;;10.50;7.00;;;;;;;;117769;1192;24810;-75
2023/01/18 11:42:34;;;;;;;;;11.00;8.67;;;;;;;;117944;1192;25250;-74
2023/01/18 11:45:25;;;;;;;;;8.33;7.00;;;;;;;;117854;1191;25167;-73
2023/01/18 11:48:00;;;;;;;;;10.50;8.00;;;;;;;;117931;1179;25100;-74
2023/01/18 11:50:43;;;;;;;;;8.67;8.67;;;;;;;;117917;1179;25612;-73
2023/01/18 11:53:37;;;;;;;;;9.00;7.00;;;;;;;;117981;1179;25505;-76
2023/01/18 11:56:22;;;;;;;;;6.00;6.00;;;;;;;;117971;1181;25408;-76
2023/01/18 11:58:50;;;;;;;;;5.75;5.00;;;;;;;;117849;1179;26055;-73
2023/01/18 12:01:32;;;;;;;;;6.67;6.00;;;;;;;;117719;1180;25006;-71
2023/01/18 12:04:25;;;;;;;;;7.00;5.33;;;;;;;;117816;1187;24979;-72
2023/01/18 12:07:08;;;;;;;;;7.75;5.25;;;;;;;;117807;1178;25124;-74
2023/01/18 12:09:56;;;;;;;;;7.67;6.33;;;;;;;;117969;1181;24913;-74
2023/01/18 12:12:37;;;;;;;;;8.00;5.00;;;;;;;;117494;1192;24743;-73
2023/01/18 12:15:38;;;;;;;;;7.50;7.50;;;;;;;;117885;1180;25097;-72
2023/01/18 12:18:42;;;;;;;;;9.67;6.67;;;;;;;;117520;1180;25198;-72
2023/01/18 12:21:12;;;;;;;;;7.25;6.75;;;;;;;;117817;1181;25386;-70
2023/01/18 12:24:03;;;;;;;;;7.00;7.00;;;;;;;;117955;1191;25573;-72
2023/01/18 12:26:41;;;;;;;;;11.00;7.00;;;;;;;;117799;1180;24832;-72
2023/01/18 12:29:13;;;;;;;;;7.50;7.00;;;;;;;;117864;1179;24882;-76
2023/01/18 12:31:53;;;;;;;;;5.00;5.00;;;;;;;;117934;1192;25046;-78
2023/01/18 12:34:26;;;;;;;;;7.00;7.00;;;;;;;;117835;1181;25697;-74
2023/01/18 12:37:00;;;;;;;;;6.33;5.00;;;;;;;;117840;1181;26319;-72
2023/01/18 12:39:35;;;;;;;;;10.00;5.67;;;;;;;;117785;1192;25406;-75
2023/01/18 12:42:08;;;;;;;;;6.50;6.50;;;;;;;;117843;1179;26234;-76
2023/01/18 12:44:36;;;;;;;;;10.00;6.25;;;;;;;;117957;1178;25186;-72
2023/01/18 12:47:17;;;;;;;;;8.33;5.33;;;;;;;;117893;1179;25454;-73
2023/01/18 12:49:50;;;;;;;;;7.50;6.25;;;;;;;;117853;1187;25001;-75
2023/01/18 12:52:21;;;;;;;;;5.00;5.00;;;;;;;;117906;1186;25474;-74
2023/01/18 12:54:58;;;;;;;;;6.50;6.50;;;;;;;;117830;1180;24988;-72
2023/01/18 12:57:28;;;;;;;;;7.00;6.00;;;;;;;;117839;1189;25055;-76
2023/01/18 13:00:04;;;;;;;;;4.67;4.67;;;;;;;;117944;1179;24940;-74
2023/01/18 13:02:34;;;;;;;;;7.67;6.00;;;;;;;;117932;1192;25621;-77
2023/01/18 13:05:37;;;;;;;;;9.00;6.00;;;;;;;;117931;1181;25212;-77
2023/01/18 13:08:25;;;;;;;;;6.25;5.25;;;;;;;;117643;1190;24770;-75
2023/01/18 13:10:59;;;;;;;;;6.00;6.00;;;;;;;;117924;1192;24878;-75
2023/01/18 13:13:28;;;;;;;;;6.67;4.00;;;;;;;;117912;1181;24683;-75
2023/01/18 13:16:11;;;;;;;;;9.00;7.00;;;;;;;;117536;1180;25192;-72
2023/01/18 13:19:02;;;;;;;;;6.00;4.75;;;;;;;;117503;1181;25228;-71
2023/01/18 13:21:45;;;;;;;;;5.67;5.33;;;;;;;;117925;1180;24897;-71
2023/01/18 13:24:13;;;;;;;;;6.00;5.00;;;;;;;;117839;1181;25379;-72
2023/01/18 13:26:42;;;;;;;;;5.75;5.75;;;;;;;;117861;1188;25293;-70
2023/01/18 13:29:29;;;;;;;;;10.33;7.33;;;;;;;;117809;1181;25184;-70
2023/01/18 13:31:59;;;;;;;;;7.00;5.67;;;;;;;;117801;1179;24982;-71
2023/01/18 13:34:34;;;;;;;;;7.00;6.00;;;;;;;;117890;1180;25405;-70
2023/01/18 13:37:38;;;;;;;;;8.00;5.67;;;;;;;;117862;1180;25271;-69
2023/01/18 13:40:19;;;;;;;;;9.33;8.67;;;;;;;;117922;1183;25477;-71
2023/01/18 13:42:49;;;;;;;;;6.50;5.75;;;;;;;;117928;1192;25072;-71
2023/01/18 13:45:22;;;;;;;;;7.00;6.00;;;;;;;;117935;1180;24844;-72
2023/01/18 13:47:54;;;;;;;;;8.00;5.75;;;;;;;;117894;1179;24726;-73
2023/01/18 13:50:31;;;;;;;;;6.00;5.00;;;;;;;;117892;1180;25089;-72
2023/01/18 13:53:11;;;;;;;;;7.50;4.00;;;;;;;;117893;1181;25284;-74
2023/01/18 13:55:46;;;;;;;;;10.25;5.00;;;;;;;;117905;1192;25790;-72
2023/01/18 13:58:23;;;;;;;;;6.00;6.00;;;;;;;;117493;1180;25844;-72
2023/01/18 14:00:53;;;;;;;;;4.25;3.00;;;;;;;;117871;1179;25347;-70
2023/01/18 14:03:28;;;;;;;;;6.33;5.00;;;;;;;;117890;1179;24829;-72
2023/01/18 14:05:57;;;;;;;;;8.00;4.00;;;;;;;;117911;1192;25458;-71
2023/01/18 14:08:30;;;;;;;;;6.00;6.00;;;;;;;;117822;1192;25497;-73
2023/01/18 14:11:03;;;;;;;;;7.25;6.25;;;;;;;;117818;1180;26283;-73
2023/01/18 14:13:52;;;;;;;;;5.00;4.00;;;;;;;;117876;1192;25570;-67
2023/01/18 14:16:24;;;;;;;;;5.00;4.00;;;;;;;;117772;1181;25215;-69
2023/01/18 14:19:20;;;;;;;;;4.00;3.00;;;;;;;;117878;1191;25440;-62
2023/01/18 14:22:04;;;;;;;;;4.67;4.00;;;;;;;;117922;1180;25271;-67
2023/01/18 14:24:45;;;;;;;;;4.25;4.25;;;;;;;;117890;1181;25061;-67
2023/01/18 14:27:21;;;;;;;;;7.50;5.50;;;;;;;;117543;1180;26592;-66
2023/01/18 14:30:06;;;;;;;;;3.00;2.00;;;;;;;;117500;1192;25697;-69
2023/01/18 14:32:43;;;;;;;;;8.33;5.00;;;;;;;;117459;1183;24978;-69
2023/01/18 14:35:21;;;;;;;;;5.50;5.00;;;;;;;;117517;1180;25140;-69
2023/01/18 14:38:07;;;;;;;;;7.00;5.50;;;;;;;;117475;1180;25641;-71
2023/01/18 14:40:52;;;;;;;;;2.33;2.33;;;;;;;;117901;1180;25492;-69
2023/01/18 14:43:31;;;;;;;;;4.00;4.00;;;;;;;;117961;1192;25404;-66
2023/01/18 14:46:06;;;;;;;;;9.00;6.33;;;;;;;;117926;1192;24939;-70
2023/01/18 14:48:50;;;;;;;;;5.00;5.00;;;;;;;;117905;1179;25490;-67
2023/01/18 14:51:29;;;;;;;;;5.00;3.00;;;;;;;;117923;1188;24875;-68
2023/01/18 14:54:00;;;;;;;;;6.00;5.00;;;;;;;;117558;1180;24804;-66
2023/01/18 14:56:32;;;;;;;;;8.00;4.00;;;;;;;;117881;1180;24846;-66
2023/01/18 14:59:15;;;;;;;;;5.00;5.00;;;;;;;;117840;1184;25014;-68
2023/01/18 15:01:52;;;;;;;;;5.50;5.50;;;;;;;;117772;1192;25721;-69
2023/01/18 15:04:23;;;;;;;;;5.50;4.00;;;;;;;;117902;1192;25888;-69
2023/01/18 15:06:55;;;;;;;;;4.00;4.00;;;;;;;;117932;1179;25743;-71
2023/01/18 15:09:25;;;;;;;;;3.50;3.50;;;;;;;;117916;1192;24994;-70
2023/01/18 15:11:58;;;;;;;;;4.00;4.00;;;;;;;;117886;1179;25434;-69
2023/01/18 15:14:31;;;;;;;;;5.00;4.00;;;;;;;;117470;1191;25250;-69
2023/01/18 15:17:00;;;;;;;;;5.50;4.50;;;;;;;;117851;1180;24757;-66
2023/01/18 15:19:41;;;;;;;;;4.75;3.50;;;;;;;;117830;1180;25353;-76
2023/01/18 15:22:15;;;;;;;;;7.25;4.00;;;;;;;;117893;1188;25457;-72
2023/01/18 15:24:44;;;;;;;;;3.67;2.00;;;;;;;;117924;1192;25235;-71
2023/01/18 15:27:18;;;;;;;;;3.00;3.00;;;;;;;;118008;1179;25454;-72
2023/01/18 15:29:52;;;;;;;;;5.00;4.00;;;;;;;;117914;1179;25263;-73
2023/01/18 15:32:23;;;;;;;;;2.00;2.00;;;;;;;;117893;1181;26012;-73
2023/01/18 15:34:54;;;;;;;;;3.50;3.50;;;;;;;;117869;1180;26754;-72
2023/01/18 15:37:32;;;;;;;;;2.25;2.25;;;;;;;;117852;1192;25775;-75